sensor_id;sensor_type;location;lat;lon;timestamp;temperature;humidity
42365;DHT22;28498;54.400;18.566;2023-10-08T00:01:20;8.10;99.90
42365;DHT22;28498;54.400;18.566;2023-10-08T00:03:49;8.00;99.90
42365;DHT22;28498;54.400;18.566;2023-10-08T00:06:19;8.10;99.90
42365;DHT22;28498;54.400;18.566;2023-10-08T00:08:50;8.00;99.90
42365;DHT22;28498;54.400;18.566;2023-10-08T00:11:18;8.00;99.90
42365;DHT22;28498;54.400;18.566;2023-10-08T00:13:45;8.00;99.90
42365;DHT22;28498;54.400;18.566;2023-10-08T00:16:15;7.90;99.90
42365;DHT22;28498;54.400;18.566;2023-10-08T00:18:44;7.90;99.90
42365;DHT22;28498;54.400;18.566;2023-10-08T00:21:20;8.00;99.90
42365;DHT22;28498;54.400;18.566;2023-10-08T00:23:55;8.00;99.90
42365;DHT22;28498;54.400;18.566;2023-10-08T00:26:27;8.00;99.90
42365;DHT22;28498;54.400;18.566;2023-10-08T00:29:00;7.90;99.90
42365;DHT22;28498;54.400;18.566;2023-10-08T00:31:33;7.80;99.90
42365;DHT22;28498;54.400;18.566;2023-10-08T00:34:08;7.90;99.90
42365;DHT22;28498;54.400;18.566;2023-10-08T00:36:43;7.80;99.90
42365;DHT22;28498;54.400;18.566;2023-10-08T00:39:11;7.70;99.90
42365;DHT22;28498;54.400;18.566;2023-10-08T00:41:44;7.60;99.90
42365;DHT22;28498;54.400;18.566;2023-10-08T00:44:13;7.60;99.90
42365;DHT22;28498;54.400;18.566;2023-10-08T00:46:43;7.50;99.90
42365;DHT22;28498;54.400;18.566;2023-10-08T00:49:24;7.60;99.90
42365;DHT22;28498;54.400;18.566;2023-10-08T00:51:56;7.50;99.90
42365;DHT22;28498;54.400;18.566;2023-10-08T00:54:47;7.50;99.90
42365;DHT22;28498;54.400;18.566;2023-10-08T00:57:45;7.50;99.90
42365;DHT22;28498;54.400;18.566;2023-10-08T01:00:15;7.60;99.90
42365;DHT22;28498;54.400;18.566;2023-10-08T01:02:47;7.70;99.90
42365;DHT22;28498;54.400;18.566;2023-10-08T01:05:37;7.60;99.90
42365;DHT22;28498;54.400;18.566;2023-10-08T01:08:15;7.60;99.90
42365;DHT22;28498;54.400;18.566;2023-10-08T01:11:20;7.60;99.90
42365;DHT22;28498;54.400;18.566;2023-10-08T01:14:06;7.60;99.90
42365;DHT22;28498;54.400;18.566;2023-10-08T01:16:34;7.50;99.90
42365;DHT22;28498;54.400;18.566;2023-10-08T01:19:01;7.50;99.90
42365;DHT22;28498;54.400;18.566;2023-10-08T01:21:29;7.50;99.90
42365;DHT22;28498;54.400;18.566;2023-10-08T01:24:06;7.30;99.90
42365;DHT22;28498;54.400;18.566;2023-10-08T01:26:34;7.40;99.90
42365;DHT22;28498;54.400;18.566;2023-10-08T01:29:10;7.30;99.90
42365;DHT22;28498;54.400;18.566;2023-10-08T01:31:47;7.30;99.90
42365;DHT22;28498;54.400;18.566;2023-10-08T01:34:15;7.30;99.90
42365;DHT22;28498;54.400;18.566;2023-10-08T01:36:43;7.30;99.90
42365;DHT22;28498;54.400;18.566;2023-10-08T01:39:11;7.10;99.90
42365;DHT22;28498;54.400;18.566;2023-10-08T01:41:44;7.10;99.90
42365;DHT22;28498;54.400;18.566;2023-10-08T01:44:11;7.00;99.90
42365;DHT22;28498;54.400;18.566;2023-10-08T01:46:38;7.00;99.90
42365;DHT22;28498;54.400;18.566;2023-10-08T01:49:07;7.00;99.90
42365;DHT22;28498;54.400;18.566;2023-10-08T01:51:42;7.00;99.90
42365;DHT22;28498;54.400;18.566;2023-10-08T01:54:16;7.00;99.90
42365;DHT22;28498;54.400;18.566;2023-10-08T01:56:45;7.10;99.90
42365;DHT22;28498;54.400;18.566;2023-10-08T01:59:14;7.10;99.90
42365;DHT22;28498;54.400;18.566;2023-10-08T02:01:43;7.00;99.90
42365;DHT22;28498;54.400;18.566;2023-10-08T02:04:12;6.90;99.90
42365;DHT22;28498;54.400;18.566;2023-10-08T02:06:40;6.90;99.90
42365;DHT22;28498;54.400;18.566;2023-10-08T02:09:07;7.00;99.90
42365;DHT22;28498;54.400;18.566;2023-10-08T02:11:48;7.00;99.90
42365;DHT22;28498;54.400;18.566;2023-10-08T02:14:21;6.90;99.90
42365;DHT22;28498;54.400;18.566;2023-10-08T02:16:50;6.80;99.90
42365;DHT22;28498;54.400;18.566;2023-10-08T02:19:22;6.80;99.90
42365;DHT22;28498;54.400;18.566;2023-10-08T02:21:56;6.80;99.90
42365;DHT22;28498;54.400;18.566;2023-10-08T02:24:25;6.90;99.90
42365;DHT22;28498;54.400;18.566;2023-10-08T02:26:53;6.70;99.90
42365;DHT22;28498;54.400;18.566;2023-10-08T02:29:25;6.70;99.90
42365;DHT22;28498;54.400;18.566;2023-10-08T02:31:53;6.80;99.90
42365;DHT22;28498;54.400;18.566;2023-10-08T02:34:21;6.70;99.90
42365;DHT22;28498;54.400;18.566;2023-10-08T02:36:48;6.70;99.90
42365;DHT22;28498;54.400;18.566;2023-10-08T02:39:15;6.60;99.90
42365;DHT22;28498;54.400;18.566;2023-10-08T02:41:49;6.60;99.90
42365;DHT22;28498;54.400;18.566;2023-10-08T02:44:17;6.60;99.90
42365;DHT22;28498;54.400;18.566;2023-10-08T02:46:45;6.50;99.90
42365;DHT22;28498;54.400;18.566;2023-10-08T02:49:16;6.50;99.90
42365;DHT22;28498;54.400;18.566;2023-10-08T02:51:52;6.50;99.90
42365;DHT22;28498;54.400;18.566;2023-10-08T02:54:21;6.50;99.90
42365;DHT22;28498;54.400;18.566;2023-10-08T02:56:59;6.60;99.90
42365;DHT22;28498;54.400;18.566;2023-10-08T02:59:33;6.70;99.90
42365;DHT22;28498;54.400;18.566;2023-10-08T03:02:08;6.70;99.90
42365;DHT22;28498;54.400;18.566;2023-10-08T03:05:01;6.70;99.90
42365;DHT22;28498;54.400;18.566;2023-10-08T03:07:28;6.70;99.90
42365;DHT22;28498;54.400;18.566;2023-10-08T03:10:02;6.60;99.90
42365;DHT22;28498;54.400;18.566;2023-10-08T03:12:33;6.60;99.90
42365;DHT22;28498;54.400;18.566;2023-10-08T03:15:02;6.60;99.90
42365;DHT22;28498;54.400;18.566;2023-10-08T03:17:42;6.50;99.90
42365;DHT22;28498;54.400;18.566;2023-10-08T03:20:16;6.40;99.90
42365;DHT22;28498;54.400;18.566;2023-10-08T03:23:02;6.30;99.90
42365;DHT22;28498;54.400;18.566;2023-10-08T03:25:40;6.40;99.90
42365;DHT22;28498;54.400;18.566;2023-10-08T03:28:12;6.30;99.90
42365;DHT22;28498;54.400;18.566;2023-10-08T03:30:40;6.30;99.90
42365;DHT22;28498;54.400;18.566;2023-10-08T03:33:19;6.20;99.90
42365;DHT22;28498;54.400;18.566;2023-10-08T03:35:50;6.20;99.90
42365;DHT22;28498;54.400;18.566;2023-10-08T03:38:22;6.30;99.90
42365;DHT22;28498;54.400;18.566;2023-10-08T03:40:55;6.30;99.90
42365;DHT22;28498;54.400;18.566;2023-10-08T03:43:34;6.20;99.90
42365;DHT22;28498;54.400;18.566;2023-10-08T03:46:02;6.10;99.90
42365;DHT22;28498;54.400;18.566;2023-10-08T03:48:33;6.10;99.90
42365;DHT22;28498;54.400;18.566;2023-10-08T03:51:04;6.10;99.90
42365;DHT22;28498;54.400;18.566;2023-10-08T03:53:39;6.00;99.90
42365;DHT22;28498;54.400;18.566;2023-10-08T03:56:25;6.10;99.90
42365;DHT22;28498;54.400;18.566;2023-10-08T03:58:53;6.00;99.90
42365;DHT22;28498;54.400;18.566;2023-10-08T04:01:21;6.10;99.90
42365;DHT22;28498;54.400;18.566;2023-10-08T04:03:50;6.00;99.90
42365;DHT22;28498;54.400;18.566;2023-10-08T04:06:19;6.00;99.90
42365;DHT22;28498;54.400;18.566;2023-10-08T04:08:49;6.10;99.90
42365;DHT22;28498;54.400;18.566;2023-10-08T04:11:39;6.30;99.90
42365;DHT22;28498;54.400;18.566;2023-10-08T04:14:19;6.40;99.90
42365;DHT22;28498;54.400;18.566;2023-10-08T04:16:47;6.30;99.90
42365;DHT22;28498;54.400;18.566;2023-10-08T04:19:22;6.30;99.90
42365;DHT22;28498;54.400;18.566;2023-10-08T04:21:56;6.20;99.90
42365;DHT22;28498;54.400;18.566;2023-10-08T04:24:25;6.30;99.90
42365;DHT22;28498;54.400;18.566;2023-10-08T04:26:56;6.40;99.90
42365;DHT22;28498;54.400;18.566;2023-10-08T04:29:25;6.30;99.90
42365;DHT22;28498;54.400;18.566;2023-10-08T04:31:53;6.40;99.90
42365;DHT22;28498;54.400;18.566;2023-10-08T04:34:35;6.30;99.90
42365;DHT22;28498;54.400;18.566;2023-10-08T04:37:02;6.50;99.90
42365;DHT22;28498;54.400;18.566;2023-10-08T04:39:38;6.50;99.90
42365;DHT22;28498;54.400;18.566;2023-10-08T04:42:07;6.50;99.90
42365;DHT22;28498;54.400;18.566;2023-10-08T04:44:37;6.50;99.90
42365;DHT22;28498;54.400;18.566;2023-10-08T04:47:08;6.50;99.90
42365;DHT22;28498;54.400;18.566;2023-10-08T04:49:35;6.40;99.90
42365;DHT22;28498;54.400;18.566;2023-10-08T04:52:12;6.50;99.90
42365;DHT22;28498;54.400;18.566;2023-10-08T04:54:42;6.50;99.90
42365;DHT22;28498;54.400;18.566;2023-10-08T04:57:19;6.50;99.90
42365;DHT22;28498;54.400;18.566;2023-10-08T04:59:49;6.40;99.90
42365;DHT22;28498;54.400;18.566;2023-10-08T05:02:18;6.40;99.90
42365;DHT22;28498;54.400;18.566;2023-10-08T05:05:03;6.40;99.90
42365;DHT22;28498;54.400;18.566;2023-10-08T05:07:36;6.20;99.90
42365;DHT22;28498;54.400;18.566;2023-10-08T05:10:14;6.20;99.90
42365;DHT22;28498;54.400;18.566;2023-10-08T05:12:53;6.30;99.90
42365;DHT22;28498;54.400;18.566;2023-10-08T05:15:33;6.20;99.90
42365;DHT22;28498;54.400;18.566;2023-10-08T05:18:04;6.20;99.90
42365;DHT22;28498;54.400;18.566;2023-10-08T05:20:41;6.30;99.90
42365;DHT22;28498;54.400;18.566;2023-10-08T05:23:18;6.30;99.90
42365;DHT22;28498;54.400;18.566;2023-10-08T05:25:53;6.30;99.90
42365;DHT22;28498;54.400;18.566;2023-10-08T05:28:39;6.20;99.90
42365;DHT22;28498;54.400;18.566;2023-10-08T05:31:25;6.30;99.90
42365;DHT22;28498;54.400;18.566;2023-10-08T05:34:10;6.60;99.90
42365;DHT22;28498;54.400;18.566;2023-10-08T05:36:50;6.60;99.90
42365;DHT22;28498;54.400;18.566;2023-10-08T05:39:38;6.60;99.90
42365;DHT22;28498;54.400;18.566;2023-10-08T05:42:21;6.50;99.90
42365;DHT22;28498;54.400;18.566;2023-10-08T05:44:58;6.60;99.90
42365;DHT22;28498;54.400;18.566;2023-10-08T05:47:37;6.60;99.90
42365;DHT22;28498;54.400;18.566;2023-10-08T05:50:05;6.70;99.90
42365;DHT22;28498;54.400;18.566;2023-10-08T05:52:48;6.80;99.90
42365;DHT22;28498;54.400;18.566;2023-10-08T05:55:29;6.90;99.90
42365;DHT22;28498;54.400;18.566;2023-10-08T05:58:05;7.00;99.90
42365;DHT22;28498;54.400;18.566;2023-10-08T06:00:51;7.10;99.90
42365;DHT22;28498;54.400;18.566;2023-10-08T06:03:53;7.20;99.90
42365;DHT22;28498;54.400;18.566;2023-10-08T06:06:48;7.40;99.90
42365;DHT22;28498;54.400;18.566;2023-10-08T06:09:35;7.40;99.90
42365;DHT22;28498;54.400;18.566;2023-10-08T06:12:04;7.50;99.90
42365;DHT22;28498;54.400;18.566;2023-10-08T06:14:39;7.70;99.90
42365;DHT22;28498;54.400;18.566;2023-10-08T06:17:20;7.70;99.90
42365;DHT22;28498;54.400;18.566;2023-10-08T06:20:06;7.80;99.90
42365;DHT22;28498;54.400;18.566;2023-10-08T06:22:36;7.80;99.90
42365;DHT22;28498;54.400;18.566;2023-10-08T06:25:04;7.90;99.90
42365;DHT22;28498;54.400;18.566;2023-10-08T06:27:44;8.00;99.90
42365;DHT22;28498;54.400;18.566;2023-10-08T06:30:13;8.00;99.90
42365;DHT22;28498;54.400;18.566;2023-10-08T06:32:44;8.10;99.90
42365;DHT22;28498;54.400;18.566;2023-10-08T06:35:12;8.10;99.90
42365;DHT22;28498;54.400;18.566;2023-10-08T06:37:45;8.10;99.90
42365;DHT22;28498;54.400;18.566;2023-10-08T06:40:12;8.10;99.90
42365;DHT22;28498;54.400;18.566;2023-10-08T06:42:59;8.20;99.90
42365;DHT22;28498;54.400;18.566;2023-10-08T06:45:30;8.30;99.90
42365;DHT22;28498;54.400;18.566;2023-10-08T06:47:59;8.30;99.90
42365;DHT22;28498;54.400;18.566;2023-10-08T06:50:27;8.30;99.90
42365;DHT22;28498;54.400;18.566;2023-10-08T06:52:56;8.50;99.90
42365;DHT22;28498;54.400;18.566;2023-10-08T06:55:23;8.50;99.90
42365;DHT22;28498;54.400;18.566;2023-10-08T06:57:53;8.60;99.90
42365;DHT22;28498;54.400;18.566;2023-10-08T07:00:21;8.60;99.90
42365;DHT22;28498;54.400;18.566;2023-10-08T07:03:08;8.60;99.90
42365;DHT22;28498;54.400;18.566;2023-10-08T07:05:38;8.70;99.90
42365;DHT22;28498;54.400;18.566;2023-10-08T07:08:08;8.70;99.90
42365;DHT22;28498;54.400;18.566;2023-10-08T07:14:16;8.80;99.90
42365;DHT22;28498;54.400;18.566;2023-10-08T07:16:44;8.90;99.90
42365;DHT22;28498;54.400;18.566;2023-10-08T07:19:14;9.00;99.90
42365;DHT22;28498;54.400;18.566;2023-10-08T07:21:46;9.00;99.90
42365;DHT22;28498;54.400;18.566;2023-10-08T07:24:16;9.20;99.90
42365;DHT22;28498;54.400;18.566;2023-10-08T07:26:48;9.20;99.10
42365;DHT22;28498;54.400;18.566;2023-10-08T07:29:17;9.30;99.90
42365;DHT22;28498;54.400;18.566;2023-10-08T07:31:45;9.30;96.00
42365;DHT22;28498;54.400;18.566;2023-10-08T07:34:16;9.40;97.60
42365;DHT22;28498;54.400;18.566;2023-10-08T07:36:47;9.40;92.60
42365;DHT22;28498;54.400;18.566;2023-10-08T07:39:17;9.50;90.70
42365;DHT22;28498;54.400;18.566;2023-10-08T07:41:51;9.50;91.60
42365;DHT22;28498;54.400;18.566;2023-10-08T07:44:18;9.70;93.00
42365;DHT22;28498;54.400;18.566;2023-10-08T07:47:06;9.70;87.20
42365;DHT22;28498;54.400;18.566;2023-10-08T07:49:41;9.70;88.50
42365;DHT22;28498;54.400;18.566;2023-10-08T07:52:12;9.80;81.00
42365;DHT22;28498;54.400;18.566;2023-10-08T07:54:43;9.80;81.20
42365;DHT22;28498;54.400;18.566;2023-10-08T07:57:11;9.80;83.30
42365;DHT22;28498;54.400;18.566;2023-10-08T07:59:46;9.90;80.30
42365;DHT22;28498;54.400;18.566;2023-10-08T08:02:16;9.90;79.60
42365;DHT22;28498;54.400;18.566;2023-10-08T08:04:45;10.00;79.80
42365;DHT22;28498;54.400;18.566;2023-10-08T08:07:12;10.10;78.80
42365;DHT22;28498;54.400;18.566;2023-10-08T08:09:49;10.10;77.30
42365;DHT22;28498;54.400;18.566;2023-10-08T08:12:38;10.20;76.50
42365;DHT22;28498;54.400;18.566;2023-10-08T08:15:05;10.20;75.90
42365;DHT22;28498;54.400;18.566;2023-10-08T08:17:42;10.30;75.90
42365;DHT22;28498;54.400;18.566;2023-10-08T08:20:10;10.30;75.00
42365;DHT22;28498;54.400;18.566;2023-10-08T08:22:48;10.40;74.10
42365;DHT22;28498;54.400;18.566;2023-10-08T08:25:21;10.50;74.40
42365;DHT22;28498;54.400;18.566;2023-10-08T08:28:01;10.40;70.40
42365;DHT22;28498;54.400;18.566;2023-10-08T08:30:33;10.30;71.40
42365;DHT22;28498;54.400;18.566;2023-10-08T08:33:03;10.40;70.70
42365;DHT22;28498;54.400;18.566;2023-10-08T08:35:38;10.40;71.20
42365;DHT22;28498;54.400;18.566;2023-10-08T08:38:05;10.60;71.40
42365;DHT22;28498;54.400;18.566;2023-10-08T08:40:36;10.70;72.50
42365;DHT22;28498;54.400;18.566;2023-10-08T08:43:05;10.70;71.50
42365;DHT22;28498;54.400;18.566;2023-10-08T08:45:35;10.80;71.20
42365;DHT22;28498;54.400;18.566;2023-10-08T08:48:03;10.80;70.00
42365;DHT22;28498;54.400;18.566;2023-10-08T08:50:32;10.80;70.30
42365;DHT22;28498;54.400;18.566;2023-10-08T08:53:00;10.70;69.50
42365;DHT22;28498;54.400;18.566;2023-10-08T08:55:28;10.60;69.70
42365;DHT22;28498;54.400;18.566;2023-10-08T08:57:56;10.50;70.20
42365;DHT22;28498;54.400;18.566;2023-10-08T09:00:24;10.60;70.20
42365;DHT22;28498;54.400;18.566;2023-10-08T09:02:55;10.80;70.70
42365;DHT22;28498;54.400;18.566;2023-10-08T09:05:22;10.80;70.70
42365;DHT22;28498;54.400;18.566;2023-10-08T09:07:58;10.90;71.40
42365;DHT22;28498;54.400;18.566;2023-10-08T09:10:26;11.00;71.80
42365;DHT22;28498;54.400;18.566;2023-10-08T09:12:57;11.00;71.90
42365;DHT22;28498;54.400;18.566;2023-10-08T09:15:28;11.10;71.60
42365;DHT22;28498;54.400;18.566;2023-10-08T09:17:56;11.00;71.20
42365;DHT22;28498;54.400;18.566;2023-10-08T09:20:23;10.90;70.20
42365;DHT22;28498;54.400;18.566;2023-10-08T09:25:44;11.10;70.40
42365;DHT22;28498;54.400;18.566;2023-10-08T09:28:11;10.90;67.10
42365;DHT22;28498;54.400;18.566;2023-10-08T09:30:42;10.90;68.50
42365;DHT22;28498;54.400;18.566;2023-10-08T09:33:13;10.80;67.10
42365;DHT22;28498;54.400;18.566;2023-10-08T09:35:42;10.70;68.60
42365;DHT22;28498;54.400;18.566;2023-10-08T09:38:10;10.80;68.70
42365;DHT22;28498;54.400;18.566;2023-10-08T09:40:42;10.90;69.50
42365;DHT22;28498;54.400;18.566;2023-10-08T09:43:11;11.00;70.30
42365;DHT22;28498;54.400;18.566;2023-10-08T09:45:40;11.10;70.10
42365;DHT22;28498;54.400;18.566;2023-10-08T09:48:11;11.10;67.60
42365;DHT22;28498;54.400;18.566;2023-10-08T09:50:41;11.10;67.30
42365;DHT22;28498;54.400;18.566;2023-10-08T09:53:10;11.20;68.30
42365;DHT22;28498;54.400;18.566;2023-10-08T09:55:55;11.20;66.60
42365;DHT22;28498;54.400;18.566;2023-10-08T09:58:25;11.20;66.70
42365;DHT22;28498;54.400;18.566;2023-10-08T10:00:55;11.00;65.40
42365;DHT22;28498;54.400;18.566;2023-10-08T10:03:27;10.90;66.70
42365;DHT22;28498;54.400;18.566;2023-10-08T10:05:55;10.90;64.20
42365;DHT22;28498;54.400;18.566;2023-10-08T10:08:27;10.90;62.80
42365;DHT22;28498;54.400;18.566;2023-10-08T10:11:03;10.90;62.50
42365;DHT22;28498;54.400;18.566;2023-10-08T10:13:44;10.90;64.80
42365;DHT22;28498;54.400;18.566;2023-10-08T10:16:12;10.90;66.60
42365;DHT22;28498;54.400;18.566;2023-10-08T10:18:44;10.90;67.70
42365;DHT22;28498;54.400;18.566;2023-10-08T10:23:43;11.00;66.50
42365;DHT22;28498;54.400;18.566;2023-10-08T10:26:34;11.00;67.90
42365;DHT22;28498;54.400;18.566;2023-10-08T10:31:39;11.20;69.40
42365;DHT22;28498;54.400;18.566;2023-10-08T10:34:07;11.20;66.40
42365;DHT22;28498;54.400;18.566;2023-10-08T10:36:36;11.10;66.70
42365;DHT22;28498;54.400;18.566;2023-10-08T10:39:04;11.20;68.30
42365;DHT22;28498;54.400;18.566;2023-10-08T10:41:46;11.00;66.50
42365;DHT22;28498;54.400;18.566;2023-10-08T10:44:17;11.10;66.30
42365;DHT22;28498;54.400;18.566;2023-10-08T10:46:45;11.10;66.40
42365;DHT22;28498;54.400;18.566;2023-10-08T10:49:32;11.10;65.30
42365;DHT22;28498;54.400;18.566;2023-10-08T10:52:03;11.10;65.30
42365;DHT22;28498;54.400;18.566;2023-10-08T10:54:32;11.00;65.90
42365;DHT22;28498;54.400;18.566;2023-10-08T10:57:03;10.80;67.00
42365;DHT22;28498;54.400;18.566;2023-10-08T10:59:35;10.90;68.90
42365;DHT22;28498;54.400;18.566;2023-10-08T11:02:09;11.00;68.80
42365;DHT22;28498;54.400;18.566;2023-10-08T11:04:48;11.00;68.40
42365;DHT22;28498;54.400;18.566;2023-10-08T11:07:18;11.00;69.30
42365;DHT22;28498;54.400;18.566;2023-10-08T11:09:47;11.00;69.60
42365;DHT22;28498;54.400;18.566;2023-10-08T11:12:15;11.10;69.00
42365;DHT22;28498;54.400;18.566;2023-10-08T11:14:50;11.10;68.80
42365;DHT22;28498;54.400;18.566;2023-10-08T11:17:25;11.00;68.30
42365;DHT22;28498;54.400;18.566;2023-10-08T11:19:53;11.10;69.00
42365;DHT22;28498;54.400;18.566;2023-10-08T11:22:21;11.00;70.40
42365;DHT22;28498;54.400;18.566;2023-10-08T11:24:50;11.00;70.50
42365;DHT22;28498;54.400;18.566;2023-10-08T11:27:24;10.90;68.40
42365;DHT22;28498;54.400;18.566;2023-10-08T11:30:03;10.80;68.50
42365;DHT22;28498;54.400;18.566;2023-10-08T11:32:38;10.80;68.50
42365;DHT22;28498;54.400;18.566;2023-10-08T11:35:15;10.80;68.00
42365;DHT22;28498;54.400;18.566;2023-10-08T11:37:47;10.70;68.90
42365;DHT22;28498;54.400;18.566;2023-10-08T11:40:25;10.70;69.20
42365;DHT22;28498;54.400;18.566;2023-10-08T11:42:57;10.70;70.20
42365;DHT22;28498;54.400;18.566;2023-10-08T11:45:26;10.70;69.10
42365;DHT22;28498;54.400;18.566;2023-10-08T11:47:54;10.80;70.20
42365;DHT22;28498;54.400;18.566;2023-10-08T11:50:29;10.80;70.70
42365;DHT22;28498;54.400;18.566;2023-10-08T11:53:02;10.80;72.60
42365;DHT22;28498;54.400;18.566;2023-10-08T11:55:31;10.80;72.30
42365;DHT22;28498;54.400;18.566;2023-10-08T11:58:04;10.80;72.40
42365;DHT22;28498;54.400;18.566;2023-10-08T12:00:42;10.90;71.60
42365;DHT22;28498;54.400;18.566;2023-10-08T12:03:15;10.70;71.20
42365;DHT22;28498;54.400;18.566;2023-10-08T12:05:50;10.80;71.10
42365;DHT22;28498;54.400;18.566;2023-10-08T12:08:26;10.70;70.10
42365;DHT22;28498;54.400;18.566;2023-10-08T12:10:54;10.80;70.60
42365;DHT22;28498;54.400;18.566;2023-10-08T12:13:22;10.70;70.70
42365;DHT22;28498;54.400;18.566;2023-10-08T12:15:55;10.70;71.40
42365;DHT22;28498;54.400;18.566;2023-10-08T12:18:39;10.80;72.00
42365;DHT22;28498;54.400;18.566;2023-10-08T12:21:07;11.00;71.20
42365;DHT22;28498;54.400;18.566;2023-10-08T12:23:42;11.10;71.30
42365;DHT22;28498;54.400;18.566;2023-10-08T12:26:10;11.10;70.10
42365;DHT22;28498;54.400;18.566;2023-10-08T12:28:43;11.10;69.90
42365;DHT22;28498;54.400;18.566;2023-10-08T12:31:18;11.20;71.40
42365;DHT22;28498;54.400;18.566;2023-10-08T12:33:52;10.80;68.90
42365;DHT22;28498;54.400;18.566;2023-10-08T12:36:21;10.80;71.10
42365;DHT22;28498;54.400;18.566;2023-10-08T12:38:53;10.90;71.50
42365;DHT22;28498;54.400;18.566;2023-10-08T12:41:26;10.90;72.00
42365;DHT22;28498;54.400;18.566;2023-10-08T12:43:54;11.00;72.20
42365;DHT22;28498;54.400;18.566;2023-10-08T12:46:22;11.00;70.60
42365;DHT22;28498;54.400;18.566;2023-10-08T12:48:53;10.80;70.20
42365;DHT22;28498;54.400;18.566;2023-10-08T12:51:23;10.80;71.10
42365;DHT22;28498;54.400;18.566;2023-10-08T12:53:53;10.80;71.40
42365;DHT22;28498;54.400;18.566;2023-10-08T12:56:31;10.80;70.80
42365;DHT22;28498;54.400;18.566;2023-10-08T12:59:12;10.80;70.60
42365;DHT22;28498;54.400;18.566;2023-10-08T13:01:51;10.80;70.50
42365;DHT22;28498;54.400;18.566;2023-10-08T13:04:19;10.90;70.50
42365;DHT22;28498;54.400;18.566;2023-10-08T13:06:56;10.90;70.20
42365;DHT22;28498;54.400;18.566;2023-10-08T13:09:24;10.80;69.60
42365;DHT22;28498;54.400;18.566;2023-10-08T13:11:52;10.80;69.80
42365;DHT22;28498;54.400;18.566;2023-10-08T13:14:19;10.70;69.50
42365;DHT22;28498;54.400;18.566;2023-10-08T13:20:30;10.60;71.90
42365;DHT22;28498;54.400;18.566;2023-10-08T13:23:01;10.60;71.00
42365;DHT22;28498;54.400;18.566;2023-10-08T13:25:28;10.60;72.00
42365;DHT22;28498;54.400;18.566;2023-10-08T13:27:57;10.60;71.40
42365;DHT22;28498;54.400;18.566;2023-10-08T13:30:24;10.60;71.40
42365;DHT22;28498;54.400;18.566;2023-10-08T13:32:51;10.60;71.50
42365;DHT22;28498;54.400;18.566;2023-10-08T13:35:18;10.60;72.70
42365;DHT22;28498;54.400;18.566;2023-10-08T13:37:46;10.40;71.90
42365;DHT22;28498;54.400;18.566;2023-10-08T13:40:15;10.40;72.80
42365;DHT22;28498;54.400;18.566;2023-10-08T13:42:42;10.50;72.90
42365;DHT22;28498;54.400;18.566;2023-10-08T13:45:10;10.50;74.20
42365;DHT22;28498;54.400;18.566;2023-10-08T13:51:30;10.40;74.00
42365;DHT22;28498;54.400;18.566;2023-10-08T13:54:00;10.40;74.10
42365;DHT22;28498;54.400;18.566;2023-10-08T13:56:27;10.30;75.00
42365;DHT22;28498;54.400;18.566;2023-10-08T13:58:59;10.40;75.50
42365;DHT22;28498;54.400;18.566;2023-10-08T14:01:42;10.40;76.00
42365;DHT22;28498;54.400;18.566;2023-10-08T14:04:20;10.30;76.20
42365;DHT22;28498;54.400;18.566;2023-10-08T14:06:48;10.30;77.00
42365;DHT22;28498;54.400;18.566;2023-10-08T14:09:19;10.30;77.70
42365;DHT22;28498;54.400;18.566;2023-10-08T14:11:59;10.20;77.90
42365;DHT22;28498;54.400;18.566;2023-10-08T14:14:27;10.20;78.30
42365;DHT22;28498;54.400;18.566;2023-10-08T14:16:58;10.10;79.60
42365;DHT22;28498;54.400;18.566;2023-10-08T14:19:38;10.10;81.70
42365;DHT22;28498;54.400;18.566;2023-10-08T14:22:19;10.20;83.00
42365;DHT22;28498;54.400;18.566;2023-10-08T14:24:49;10.20;84.90
42365;DHT22;28498;54.400;18.566;2023-10-08T14:27:26;10.10;84.40
42365;DHT22;28498;54.400;18.566;2023-10-08T14:30:00;10.10;85.60
42365;DHT22;28498;54.400;18.566;2023-10-08T14:32:33;10.10;87.30
42365;DHT22;28498;54.400;18.566;2023-10-08T14:35:00;10.10;90.00
42365;DHT22;28498;54.400;18.566;2023-10-08T14:37:46;10.10;90.50
42365;DHT22;28498;54.400;18.566;2023-10-08T14:40:31;10.10;92.20
42365;DHT22;28498;54.400;18.566;2023-10-08T14:43:16;10.10;93.00
42365;DHT22;28498;54.400;18.566;2023-10-08T14:45:47;10.00;93.50
42365;DHT22;28498;54.400;18.566;2023-10-08T14:48:15;9.90;95.20
42365;DHT22;28498;54.400;18.566;2023-10-08T14:50:43;9.90;97.80
42365;DHT22;28498;54.400;18.566;2023-10-08T14:53:10;9.90;98.40
42365;DHT22;28498;54.400;18.566;2023-10-08T14:55:39;10.00;99.10
42365;DHT22;28498;54.400;18.566;2023-10-08T14:58:07;10.10;99.10
42365;DHT22;28498;54.400;18.566;2023-10-08T15:00:38;10.20;99.90
42365;DHT22;28498;54.400;18.566;2023-10-08T15:03:06;10.10;99.00
42365;DHT22;28498;54.400;18.566;2023-10-08T15:05:35;10.00;99.90
42365;DHT22;28498;54.400;18.566;2023-10-08T15:08:07;10.00;99.90
42365;DHT22;28498;54.400;18.566;2023-10-08T15:10:38;9.90;99.90
42365;DHT22;28498;54.400;18.566;2023-10-08T15:13:06;9.70;99.90
42365;DHT22;28498;54.400;18.566;2023-10-08T15:15:33;9.60;99.90
42365;DHT22;28498;54.400;18.566;2023-10-08T15:18:07;9.50;99.90
42365;DHT22;28498;54.400;18.566;2023-10-08T15:20:34;9.40;99.90
42365;DHT22;28498;54.400;18.566;2023-10-08T15:23:02;9.20;99.90
42365;DHT22;28498;54.400;18.566;2023-10-08T15:25:30;9.20;99.90
42365;DHT22;28498;54.400;18.566;2023-10-08T15:27:57;9.10;99.90
42365;DHT22;28498;54.400;18.566;2023-10-08T15:30:24;9.10;99.90
42365;DHT22;28498;54.400;18.566;2023-10-08T15:32:53;9.00;99.90
42365;DHT22;28498;54.400;18.566;2023-10-08T15:35:21;8.90;99.90
42365;DHT22;28498;54.400;18.566;2023-10-08T15:37:52;8.90;99.90
42365;DHT22;28498;54.400;18.566;2023-10-08T15:40:19;8.80;99.90
42365;DHT22;28498;54.400;18.566;2023-10-08T15:42:54;8.80;99.90
42365;DHT22;28498;54.400;18.566;2023-10-08T15:45:24;8.70;99.90
42365;DHT22;28498;54.400;18.566;2023-10-08T15:47:52;8.60;99.90
42365;DHT22;28498;54.400;18.566;2023-10-08T15:50:21;8.40;99.90
42365;DHT22;28498;54.400;18.566;2023-10-08T15:52:51;8.30;99.90
42365;DHT22;28498;54.400;18.566;2023-10-08T15:55:20;8.40;99.90
42365;DHT22;28498;54.400;18.566;2023-10-08T15:57:50;8.30;99.90
42365;DHT22;28498;54.400;18.566;2023-10-08T16:00:18;8.20;99.90
42365;DHT22;28498;54.400;18.566;2023-10-08T16:02:46;8.10;99.90
42365;DHT22;28498;54.400;18.566;2023-10-08T16:05:15;8.10;99.90
42365;DHT22;28498;54.400;18.566;2023-10-08T16:07:44;7.90;99.90
42365;DHT22;28498;54.400;18.566;2023-10-08T16:10:12;7.90;99.90
42365;DHT22;28498;54.400;18.566;2023-10-08T16:12:39;7.80;99.90
42365;DHT22;28498;54.400;18.566;2023-10-08T16:15:06;7.70;99.90
42365;DHT22;28498;54.400;18.566;2023-10-08T16:17:34;7.70;99.90